createdAt,value
2019-06-27T00:01:10.021Z,29.00
2019-06-27T00:03:44.425Z,29.00
2019-06-27T00:06:19.135Z,29.02
2019-06-27T00:08:53.638Z,29.02
2019-06-27T00:11:28.441Z,28.95
2019-06-27T00:14:02.920Z,28.87
2019-06-27T00:16:37.280Z,28.81
2019-06-27T00:19:11.765Z,28.72
2019-06-27T00:21:46.278Z,28.73
2019-06-27T00:27:47.859Z,28.68
2019-06-27T00:30:22.636Z,28.56
2019-06-27T00:32:56.947Z,28.55
2019-06-27T00:35:31.283Z,28.51
2019-06-27T00:38:05.777Z,28.51
2019-06-27T00:40:38.649Z,28.44
2019-06-27T00:43:12.946Z,28.39
2019-06-27T00:45:47.112Z,28.34
2019-06-27T00:48:21.686Z,28.08
2019-06-27T00:53:35.782Z,27.95
2019-06-27T00:56:08.853Z,27.95
2019-06-27T00:58:43.273Z,27.87
2019-06-27T01:01:17.720Z,27.80
2019-06-27T01:03:52.095Z,27.79
2019-06-27T01:06:26.672Z,27.83
2019-06-27T01:09:00.947Z,27.83
2019-06-27T01:11:36.778Z,27.78
2019-06-27T01:14:09.710Z,27.80
2019-06-27T01:16:43.945Z,27.73
2019-06-27T01:19:18.272Z,27.48
2019-06-27T01:21:53.277Z,27.48
2019-06-27T01:24:27.667Z,27.50
2019-06-27T01:27:02.102Z,27.30
2019-06-27T01:29:36.307Z,27.15
2019-06-27T01:32:10.777Z,27.15
2019-06-27T01:34:45.080Z,27.09
2019-06-27T01:37:19.656Z,27.13
2019-06-27T01:39:53.627Z,27.13
2019-06-27T01:42:27.917Z,27.21
2019-06-27T01:45:08.269Z,27.11
2019-06-27T01:47:42.657Z,27.11
2019-06-27T01:50:16.940Z,27.15
2019-06-27T01:52:52.270Z,27.22
2019-06-27T01:55:26.677Z,27.15
2019-06-27T01:57:59.689Z,27.16
2019-06-27T02:00:34.253Z,27.05
2019-06-27T02:05:47.664Z,26.75
2019-06-27T02:08:22.273Z,26.75
2019-06-27T02:10:56.958Z,26.82
2019-06-27T02:13:31.309Z,26.83
2019-06-27T02:16:05.942Z,26.75
2019-06-27T02:18:40.294Z,26.78
2019-06-27T02:21:14.760Z,26.75
2019-06-27T02:23:47.674Z,26.65
2019-06-27T02:26:22.083Z,26.68
2019-06-27T02:28:56.317Z,26.63
2019-06-27T02:31:30.889Z,26.63
2019-06-27T02:34:07.102Z,26.73
2019-06-27T02:36:58.356Z,26.64
2019-06-27T02:39:33.951Z,26.64
2019-06-27T02:42:08.646Z,26.62
2019-06-27T02:44:43.078Z,26.56
2019-06-27T02:47:17.649Z,26.42
2019-06-27T02:49:51.092Z,26.42
2019-06-27T02:52:25.295Z,26.38
2019-06-27T02:54:59.707Z,26.36
2019-06-27T02:57:34.131Z,26.25
2019-06-27T03:00:08.639Z,26.02
2019-06-27T03:02:42.954Z,26.02
2019-06-27T03:05:17.708Z,25.90
2019-06-27T03:07:50.812Z,25.90
2019-06-27T03:10:25.122Z,25.78
2019-06-27T03:12:59.731Z,25.79
2019-06-27T03:15:34.110Z,25.81
2019-06-27T03:18:08.697Z,25.71
2019-06-27T03:20:43.096Z,25.71
2019-06-27T03:23:17.740Z,25.64
2019-06-27T03:25:51.057Z,25.39
2019-06-27T03:28:25.305Z,25.39
2019-06-27T03:30:59.727Z,25.43
2019-06-27T03:33:34.134Z,25.40
2019-06-27T03:36:08.623Z,25.32
2019-06-27T03:38:42.960Z,25.32
2019-06-27T03:41:17.336Z,25.28
2019-06-27T03:43:51.947Z,25.21
2019-06-27T03:46:26.278Z,25.03
2019-06-27T03:49:00.705Z,24.83
2019-06-27T03:51:33.867Z,24.78
2019-06-27T03:54:08.119Z,24.78
2019-06-27T03:56:42.642Z,24.72
2019-06-27T03:59:17.240Z,24.72
2019-06-27T04:01:51.694Z,24.53
2019-06-27T04:04:26.106Z,24.48
2019-06-27T04:07:00.864Z,24.43
2019-06-27T04:09:35.280Z,24.26
2019-06-27T04:12:09.725Z,24.37
2019-06-27T04:15:14.701Z,24.42
2019-06-27T04:17:48.032Z,24.18
2019-06-27T04:20:22.330Z,24.02
2019-06-27T04:22:56.950Z,24.04
2019-06-27T04:25:31.338Z,24.05
2019-06-27T04:28:05.785Z,24.06
2019-06-27T04:30:40.268Z,23.91
2019-06-27T04:33:14.826Z,23.83
2019-06-27T04:35:48.031Z,23.87
2019-06-27T04:38:22.279Z,23.82
2019-06-27T04:40:56.744Z,23.95
2019-06-27T04:43:32.315Z,23.80
2019-06-27T04:46:06.886Z,23.80
2019-06-27T04:48:41.281Z,23.71
2019-06-27T04:51:15.721Z,23.69
2019-06-27T04:53:50.145Z,23.58
2019-06-27T04:56:24.676Z,23.62
2019-06-27T04:58:57.653Z,23.62
2019-06-27T05:01:31.956Z,23.51
2019-06-27T05:04:07.691Z,23.52
2019-06-27T05:06:41.946Z,23.52
2019-06-27T05:09:16.277Z,23.44
2019-06-27T05:11:50.794Z,23.42
2019-06-27T05:14:23.684Z,23.42
2019-06-27T05:16:58.327Z,23.54
2019-06-27T05:19:32.750Z,23.57
2019-06-27T05:22:05.805Z,23.57
2019-06-27T05:24:39.959Z,23.68
2019-06-27T05:27:14.278Z,23.75
2019-06-27T05:29:49.738Z,23.80
2019-06-27T05:32:25.700Z,23.92
2019-06-27T05:35:00.121Z,23.88
2019-06-27T05:37:34.728Z,23.89
2019-06-27T05:40:09.643Z,24.05
2019-06-27T05:42:43.947Z,24.12
2019-06-27T05:45:19.277Z,24.18
2019-06-27T05:47:53.807Z,24.18
2019-06-27T05:50:26.784Z,24.29
2019-06-27T05:53:00.948Z,24.35
2019-06-27T05:55:34.854Z,24.32
2019-06-27T05:58:08.945Z,24.36
2019-06-27T06:00:44.122Z,24.39
2019-06-27T06:03:18.696Z,24.28
2019-06-27T06:05:53.090Z,24.21
2019-06-27T06:08:27.673Z,24.25
2019-06-27T06:11:02.287Z,24.25
2019-06-27T06:13:36.874Z,24.37
2019-06-27T06:16:12.892Z,24.29
2019-06-27T06:18:47.273Z,24.05
2019-06-27T06:21:21.712Z,23.97
2019-06-27T06:23:56.123Z,23.97
2019-06-27T06:26:30.675Z,23.98
2019-06-27T06:29:05.112Z,23.82
2019-06-27T06:31:39.649Z,23.84
2019-06-27T06:34:13.952Z,23.84
2019-06-27T06:36:48.653Z,23.67
2019-06-27T06:39:23.258Z,23.67
2019-06-27T06:41:57.704Z,23.63
2019-06-27T06:44:32.251Z,23.47
2019-06-27T06:47:06.684Z,23.52
2019-06-27T06:49:40.942Z,23.71
2019-06-27T06:52:13.694Z,24.19
2019-06-27T06:54:48.141Z,24.39
2019-06-27T06:57:23.638Z,24.58
2019-06-27T06:59:57.961Z,24.58
2019-06-27T07:02:32.582Z,24.59
2019-06-27T07:05:07.358Z,24.59
2019-06-27T07:07:41.901Z,24.68
2019-06-27T07:10:17.365Z,24.73
2019-06-27T07:12:51.927Z,25.07
2019-06-27T07:15:26.296Z,25.47
2019-06-27T07:18:00.795Z,25.58
2019-06-27T07:20:33.791Z,25.32
2019-06-27T07:23:07.928Z,25.17
2019-06-27T07:25:42.275Z,24.82
2019-06-27T07:28:16.681Z,24.91
2019-06-27T07:30:51.118Z,24.69
2019-06-27T07:33:25.635Z,25.00
2019-06-27T07:36:00.941Z,25.00
2019-06-27T07:38:35.277Z,25.16
2019-06-27T07:41:10.702Z,25.25
2019-06-27T07:43:44.109Z,25.27
2019-06-27T07:46:25.167Z,26.01
2019-06-27T07:48:55.302Z,26.14
2019-06-27T07:51:29.892Z,26.14
2019-06-27T07:54:04.730Z,26.19
2019-06-27T07:56:39.708Z,26.51
2019-06-27T07:59:13.039Z,26.51
2019-06-27T08:01:47.641Z,26.14
2019-06-27T08:04:22.292Z,26.14
2019-06-27T08:06:58.271Z,26.29
2019-06-27T08:09:32.711Z,26.28
2019-06-27T08:13:07.770Z,27.09
2019-06-27T08:15:41.951Z,27.26
2019-06-27T08:18:16.177Z,27.26
2019-06-27T08:20:50.937Z,27.55
2019-06-27T08:23:40.542Z,27.40
2019-06-27T08:26:01.949Z,27.40
2019-06-27T08:28:36.265Z,27.49
2019-06-27T08:31:10.753Z,27.88
2019-06-27T08:33:45.700Z,28.05
2019-06-27T08:36:19.042Z,28.05
2019-06-27T08:38:53.659Z,28.45
2019-06-27T08:43:01.288Z,28.62
2019-06-27T08:45:35.746Z,28.40
2019-06-27T08:48:09.086Z,28.67
2019-06-27T08:50:43.292Z,28.91
2019-06-27T08:53:17.953Z,29.37
2019-06-27T08:55:52.345Z,29.80
2019-06-27T08:58:25.855Z,29.96
2019-06-27T09:01:00.318Z,30.82
2019-06-27T09:03:34.917Z,30.82
2019-06-27T09:06:09.304Z,30.93
2019-06-27T09:08:43.959Z,30.93
2019-06-27T09:11:19.114Z,31.21
2019-06-27T09:13:53.669Z,31.77
2019-06-27T09:16:26.673Z,31.77
2019-06-27T09:19:00.939Z,32.06
2019-06-27T09:21:35.279Z,32.10
2019-06-27T09:24:09.720Z,31.96
2019-06-27T09:26:44.339Z,31.90
2019-06-27T09:29:18.929Z,32.08
2019-06-27T09:31:53.305Z,32.44
2019-06-27T09:34:27.750Z,32.41
2019-06-27T09:37:02.133Z,32.36
2019-06-27T09:39:36.662Z,32.08
2019-06-27T09:42:09.644Z,32.91
2019-06-27T09:44:44.009Z,33.50
2019-06-27T09:47:18.306Z,33.61
2019-06-27T09:49:52.866Z,33.59
2019-06-27T09:52:27.278Z,33.09
2019-06-27T09:55:01.891Z,33.33
2019-06-27T09:57:36.615Z,33.50
2019-06-27T10:00:11.920Z,33.50
2019-06-27T10:02:46.311Z,33.59
2019-06-27T10:05:21.066Z,33.59
2019-06-27T10:07:55.303Z,33.50
2019-06-27T10:10:29.702Z,33.50
2019-06-27T10:13:04.269Z,33.90
2019-06-27T10:15:39.718Z,34.30
2019-06-27T10:18:12.639Z,34.31
2019-06-27T10:20:47.684Z,34.37
2019-06-27T10:23:20.632Z,34.37
2019-06-27T10:25:54.925Z,34.47
2019-06-27T10:28:29.279Z,34.70
2019-06-27T10:31:03.882Z,34.70
2019-06-27T10:33:38.276Z,34.82
2019-06-27T10:36:12.856Z,35.20
2019-06-27T10:38:47.309Z,35.10
2019-06-27T10:41:21.767Z,35.10
2019-06-27T10:43:58.325Z,34.70
2019-06-27T10:46:30.750Z,34.52
2019-06-27T10:49:03.709Z,35.10
2019-06-27T10:51:38.083Z,35.10
2019-06-27T10:54:12.685Z,35.43
2019-06-27T10:56:47.060Z,35.47
2019-06-27T10:59:22.644Z,36.19
2019-06-27T11:01:55.775Z,36.19
2019-06-27T11:04:28.665Z,36.47
2019-06-27T11:07:02.950Z,36.37
2019-06-27T11:09:37.701Z,36.58
2019-06-27T11:12:12.218Z,36.66
2019-06-27T11:14:58.566Z,37.07
2019-06-27T11:17:21.686Z,37.08
2019-06-27T11:19:55.908Z,37.24
2019-06-27T11:22:30.344Z,37.24
2019-06-27T11:25:04.947Z,37.78
2019-06-27T11:27:40.271Z,38.11
2019-06-27T11:30:15.598Z,38.39
2019-06-27T11:32:50.325Z,38.71
2019-06-27T11:35:24.753Z,38.71
2019-06-27T11:37:57.699Z,39.05
2019-06-27T11:40:31.939Z,39.05
2019-06-27T11:43:06.250Z,39.62
2019-06-27T11:45:40.706Z,39.62
2019-06-27T11:48:13.656Z,40.05
2019-06-27T11:50:47.938Z,40.21
2019-06-27T11:53:22.351Z,40.17
2019-06-27T11:55:56.759Z,40.52
2019-06-27T11:58:29.700Z,40.41
2019-06-27T12:01:04.103Z,41.03
2019-06-27T12:03:48.739Z,41.30
2019-06-27T12:06:14.801Z,41.30
2019-06-27T12:08:47.854Z,41.51
2019-06-27T12:11:21.950Z,41.49
2019-06-27T12:13:56.303Z,41.69
2019-06-27T12:16:30.728Z,42.25
2019-06-27T12:19:05.661Z,42.83
2019-06-27T12:21:38.727Z,42.83
2019-06-27T12:24:12.889Z,42.28
2019-06-27T12:26:47.279Z,42.24
2019-06-27T12:29:21.707Z,42.91
2019-06-27T12:31:55.950Z,42.91
2019-06-27T12:34:30.264Z,42.30
2019-06-27T12:37:04.688Z,42.66
2019-06-27T12:39:37.688Z,42.43
2019-06-27T12:42:11.946Z,42.49
2019-06-27T12:44:47.270Z,42.72
2019-06-27T12:47:21.863Z,42.44
2019-06-27T12:50:02.599Z,42.30
2019-06-27T12:52:32.282Z,42.10
2019-06-27T12:55:06.893Z,41.52
2019-06-27T12:57:41.279Z,41.52
2019-06-27T13:00:16.682Z,42.15
2019-06-27T13:02:49.686Z,41.60
2019-06-27T13:05:23.940Z,41.98
2019-06-27T13:07:58.292Z,42.25
2019-06-27T13:10:36.937Z,41.78
2019-06-27T13:13:11.259Z,41.29
2019-06-27T13:15:45.718Z,41.40
2019-06-27T13:18:19.927Z,42.11
2019-06-27T13:20:58.300Z,42.32
2019-06-27T13:23:30.307Z,42.50
2019-06-27T13:26:05.233Z,43.35
2019-06-27T13:28:39.736Z,43.35
2019-06-27T13:31:13.276Z,42.55
2019-06-27T13:33:47.653Z,42.64
2019-06-27T13:36:22.285Z,42.46
2019-06-27T13:38:57.120Z,42.58
2019-06-27T13:41:31.732Z,42.58
2019-06-27T13:44:05.013Z,42.65
2019-06-27T13:46:39.291Z,42.96
2019-06-27T13:49:13.917Z,43.17
2019-06-27T13:51:48.594Z,43.55
2019-06-27T13:54:21.791Z,43.43
2019-06-27T13:56:55.141Z,42.89
2019-06-27T13:59:29.648Z,43.08
2019-06-27T14:02:06.129Z,43.44
2019-06-27T14:04:56.155Z,43.19
2019-06-27T14:07:16.924Z,43.19
2019-06-27T14:09:56.688Z,43.31
2019-06-27T14:12:27.484Z,43.10
2019-06-27T14:15:02.000Z,42.74
2019-06-27T14:17:36.732Z,42.74
2019-06-27T14:20:09.884Z,43.15
2019-06-27T14:22:44.307Z,43.46
2019-06-27T14:25:18.694Z,43.46
2019-06-27T14:27:51.707Z,43.06
2019-06-27T14:30:27.353Z,42.70
2019-06-27T14:33:01.902Z,42.47
2019-06-27T14:35:36.272Z,41.44
2019-06-27T14:38:10.872Z,41.61
2019-06-27T14:40:46.667Z,41.75
2019-06-27T14:43:19.875Z,41.81
2019-06-27T14:46:47.284Z,41.27
2019-06-27T14:49:23.112Z,41.02
2019-06-27T14:51:59.284Z,41.02
2019-06-27T14:54:34.274Z,40.29
2019-06-27T14:57:09.090Z,39.86
2019-06-27T14:59:43.668Z,38.82
2019-06-27T15:03:19.296Z,38.82
2019-06-27T15:05:54.999Z,38.01
2019-06-27T15:08:30.304Z,37.31
2019-06-27T15:11:05.312Z,37.31
2019-06-27T15:13:40.283Z,36.68
2019-06-27T15:16:15.311Z,35.98
2019-06-27T15:18:51.284Z,35.35
2019-06-27T15:22:21.981Z,34.70
2019-06-27T15:24:57.353Z,33.96
2019-06-27T15:27:32.284Z,33.47
2019-06-27T15:30:07.680Z,33.47
2019-06-27T15:32:41.162Z,33.08
2019-06-27T15:35:15.356Z,32.76
2019-06-27T15:39:20.891Z,32.03
2019-06-27T15:41:55.461Z,31.74
2019-06-27T15:44:30.291Z,31.58
2019-06-27T15:47:05.277Z,31.48
2019-06-27T15:49:39.964Z,31.26
2019-06-27T15:52:14.714Z,31.01
2019-06-27T15:54:47.890Z,31.10
2019-06-27T15:57:23.091Z,30.91
2019-06-27T15:59:57.736Z,30.78
2019-06-27T16:02:32.249Z,30.78
2019-06-27T16:05:07.363Z,30.51
2019-06-27T16:07:41.958Z,30.57
2019-06-27T16:10:16.719Z,30.61
2019-06-27T16:12:49.883Z,30.64
2019-06-27T16:15:24.295Z,30.70
2019-06-27T16:17:58.988Z,30.54
2019-06-27T16:20:33.699Z,30.48
2019-06-27T16:23:08.133Z,30.48
2019-06-27T16:25:42.960Z,30.13
2019-06-27T16:28:17.332Z,30.03
2019-06-27T16:30:52.294Z,29.93
2019-06-27T16:33:26.338Z,29.93
2019-06-27T16:36:00.960Z,30.13
2019-06-27T16:38:35.344Z,30.08
2019-06-27T16:41:09.775Z,29.95
2019-06-27T16:43:44.689Z,30.02
2019-06-27T16:46:19.131Z,29.81
2019-06-27T16:48:53.677Z,29.70
2019-06-27T16:51:26.675Z,29.70
2019-06-27T16:54:01.086Z,29.56
2019-06-27T16:56:35.899Z,29.60
2019-06-27T16:59:10.346Z,29.63
2019-06-27T17:01:44.953Z,29.53
2019-06-27T17:04:19.734Z,29.41
2019-06-27T17:06:54.331Z,29.41
2019-06-27T17:09:29.287Z,29.45
2019-06-27T17:12:03.774Z,29.22
2019-06-27T17:14:38.443Z,29.17
2019-06-27T17:17:13.286Z,29.13
2019-06-27T17:19:47.970Z,29.08
2019-06-27T17:22:22.658Z,28.68
2019-06-27T17:24:56.043Z,28.61
2019-06-27T17:27:30.409Z,28.61
2019-06-27T17:30:08.336Z,28.70
2019-06-27T17:32:43.268Z,28.60
2019-06-27T17:37:40.964Z,28.74
2019-06-27T17:40:15.962Z,28.63
2019-06-27T17:42:50.730Z,28.56
2019-06-27T17:45:26.479Z,28.44
2019-06-27T17:47:59.803Z,28.43
2019-06-27T17:50:34.132Z,28.31
2019-06-27T17:53:10.101Z,28.18
2019-06-27T17:55:44.952Z,28.18
2019-06-27T17:58:18.066Z,28.14
2019-06-27T18:00:52.437Z,28.11
2019-06-27T18:03:27.300Z,28.01
2019-06-27T18:06:02.282Z,27.94
2019-06-27T18:08:36.722Z,27.95
2019-06-27T18:11:12.331Z,27.91
2019-06-27T18:13:47.293Z,27.78
2019-06-27T18:16:22.291Z,27.80
2019-06-27T18:19:00.431Z,27.58
2019-06-27T18:21:34.267Z,27.58
2019-06-27T18:24:08.791Z,27.50
2019-06-27T18:26:42.296Z,27.51
2019-06-27T18:29:16.668Z,27.42
2019-06-27T18:31:51.288Z,27.40
2019-06-27T18:34:26.112Z,27.35
2019-06-27T18:37:00.702Z,27.24
2019-06-27T18:39:35.375Z,27.24
2019-06-27T18:42:09.961Z,27.24
2019-06-27T18:44:44.362Z,27.09
2019-06-27T18:50:05.448Z,27.02
2019-06-27T18:52:40.512Z,26.77
2019-06-27T18:55:15.293Z,26.77
2019-06-27T18:57:49.793Z,26.81
2019-06-27T19:00:25.926Z,26.83
2019-06-27T19:03:01.155Z,26.72
2019-06-27T19:05:36.332Z,26.69
2019-06-27T19:08:10.871Z,26.69
2019-06-27T19:10:45.728Z,26.66
2019-06-27T19:13:19.151Z,26.55
2019-06-27T19:15:55.288Z,26.35
2019-06-27T19:18:47.161Z,26.35
2019-06-27T19:21:27.374Z,26.43
2019-06-27T19:24:21.895Z,26.35
2019-06-27T19:26:57.930Z,26.21
2019-06-27T19:29:32.675Z,26.14
2019-06-27T19:32:07.124Z,26.14
2019-06-27T19:34:41.947Z,26.07
2019-06-27T19:37:16.304Z,26.00
2019-06-27T19:39:54.329Z,25.81
2019-06-27T19:44:16.669Z,25.76
2019-06-27T19:46:50.419Z,25.76
2019-06-27T19:51:52.301Z,25.58
2019-06-27T19:54:27.315Z,25.58
2019-06-27T19:57:02.317Z,25.51
2019-06-27T19:59:37.407Z,25.41
2019-06-27T20:02:12.287Z,25.39
2019-06-27T20:04:47.302Z,25.33
2019-06-27T20:07:22.294Z,25.29
2019-06-27T20:09:57.318Z,25.24
2019-06-27T20:12:32.317Z,25.19
2019-06-27T20:15:08.885Z,25.13
2019-06-27T20:17:44.313Z,25.04
2019-06-27T20:20:19.351Z,25.04
2019-06-27T20:22:54.305Z,24.99
2019-06-27T20:25:29.798Z,24.95
2019-06-27T20:28:04.999Z,24.81
2019-06-27T20:30:39.881Z,24.81
2019-06-27T20:33:14.402Z,24.76
2019-06-27T20:35:49.085Z,24.69
2019-06-27T20:38:34.384Z,24.65
2019-06-27T20:40:59.955Z,24.65
2019-06-27T20:43:34.332Z,24.66
2019-06-27T20:46:08.976Z,24.62
2019-06-27T20:48:43.693Z,24.24
2019-06-27T20:51:16.818Z,24.24
2019-06-27T20:53:51.280Z,24.19
2019-06-27T20:56:25.895Z,24.19
2019-06-27T20:59:00.399Z,24.09
2019-06-27T21:01:35.124Z,24.11
2019-06-27T21:04:09.934Z,24.02
2019-06-27T21:06:44.304Z,24.02
2019-06-27T21:09:19.973Z,23.96
2019-06-27T21:11:54.798Z,23.95
2019-06-27T21:14:27.683Z,23.90
2019-06-27T21:17:01.961Z,23.93
2019-06-27T21:19:36.401Z,23.89
2019-06-27T21:22:10.931Z,23.85
2019-06-27T21:24:45.366Z,23.78
2019-06-27T21:27:20.102Z,23.80
2019-06-27T21:29:54.869Z,23.80
2019-06-27T21:32:31.869Z,23.69
2019-06-27T21:35:18.344Z,23.65
2019-06-27T21:37:53.645Z,23.65
2019-06-27T21:40:35.312Z,23.64
2019-06-27T21:43:10.102Z,23.53
2019-06-27T21:45:44.662Z,23.53
2019-06-27T21:48:19.285Z,23.26
2019-06-27T21:50:54.129Z,23.09
2019-06-27T21:53:29.744Z,22.94
2019-06-27T21:56:04.191Z,22.94
2019-06-27T21:58:39.302Z,22.80
2019-06-27T22:01:14.425Z,22.85
2019-06-27T22:03:53.794Z,22.85
2019-06-27T22:06:28.294Z,22.87
2019-06-27T22:09:04.650Z,22.91
2019-06-27T22:11:39.246Z,22.88
2019-06-27T22:14:16.246Z,22.91
2019-06-27T22:16:51.281Z,22.91
2019-06-27T22:19:27.302Z,22.90
2019-06-27T22:22:03.088Z,22.84
2019-06-27T22:24:38.726Z,22.78
2019-06-27T22:29:58.494Z,22.88
2019-06-27T22:32:33.575Z,22.72
2019-06-27T22:35:43.330Z,22.79
2019-06-27T22:38:36.437Z,22.61
2019-06-27T22:41:29.846Z,22.58
2019-06-27T22:44:20.536Z,22.57
2019-06-27T22:47:13.915Z,22.46
2019-06-27T22:49:49.566Z,22.44
2019-06-27T22:52:54.582Z,22.38
2019-06-27T22:55:30.543Z,22.28
2019-06-27T22:58:05.408Z,22.14
2019-06-27T23:00:40.428Z,22.14
2019-06-27T23:03:15.599Z,22.15
2019-06-27T23:05:51.348Z,22.10
2019-06-27T23:08:29.315Z,22.03
2019-06-27T23:11:06.961Z,21.99
2019-06-27T23:13:42.426Z,21.99
2019-06-27T23:16:18.363Z,21.99
2019-06-27T23:18:53.526Z,22.00
2019-06-27T23:23:10.344Z,21.93
2019-06-27T23:25:45.704Z,21.93
2019-06-27T23:28:19.045Z,21.91
2019-06-27T23:30:53.408Z,21.90
2019-06-27T23:33:28.383Z,21.87
2019-06-27T23:36:03.365Z,21.87
2019-06-27T23:38:37.880Z,21.84
2019-06-27T23:41:16.394Z,21.72
2019-06-27T23:46:34.146Z,21.61
2019-06-27T23:49:09.582Z,21.53
2019-06-27T23:51:44.279Z,21.53
2019-06-27T23:54:18.920Z,21.37
2019-06-27T23:56:54.304Z,21.32
2019-06-27T23:59:29.408Z,21.32
